Terminal Aerodrome Forecast
Issued by NWS Sterling, VA

Current Version | Previous Version | Graphics & Text | Print | Product List | Glossary On
Versions: 1 2 3 4 5 6 7 8 9 10 11 12 13 14 15 16 17 18 19 20 21 22 23 24 25
000
FTUS41 KLWX 290538
TAFDCA
TAF
KDCA 290538Z 2906/3006 VRB03KT P6SM FEW250
     FM291400 20005KT P6SM SCT050
     FM291800 18007KT P6SM BKN050
     FM292300 17008KT P6SM SCT100
     FM300200 16007KT P6SM BKN090=

USA.gov is the U.S. government's official web portal to all federal, state and local government web resources and services.